createdAt,value
2017-07-01T00:00:18.941Z,0
2017-07-01T00:01:18.943Z,0
2017-07-01T00:02:18.945Z,0
2017-07-01T00:03:18.920Z,0
2017-07-01T00:04:19.218Z,0
2017-07-01T00:05:18.763Z,0
2017-07-01T00:06:19.014Z,0
2017-07-01T00:07:18.894Z,0
2017-07-01T00:08:19.972Z,0
2017-07-01T00:09:18.544Z,0
2017-07-01T00:10:18.909Z,0
2017-07-01T00:11:18.530Z,0
2017-07-01T00:12:18.991Z,0
2017-07-01T00:13:19.537Z,0
2017-07-01T00:14:19.184Z,0
2017-07-01T00:15:19.186Z,0
2017-07-01T00:16:20.537Z,0
2017-07-01T00:17:18.824Z,0
2017-07-01T00:18:19.193Z,0
2017-07-01T00:19:20.093Z,0
2017-07-01T00:20:18.825Z,0
2017-07-01T00:21:19.460Z,0
2017-07-01T00:22:19.289Z,0
2017-07-01T00:23:19.122Z,0
2017-07-01T00:24:18.798Z,0
2017-07-01T00:25:19.907Z,0
2017-07-01T00:26:19.432Z,0
2017-07-01T00:27:18.806Z,0
2017-07-01T00:28:19.153Z,0
2017-07-01T00:29:19.401Z,0
2017-07-01T00:30:19.094Z,0
2017-07-01T00:31:19.095Z,0
2017-07-01T00:32:19.411Z,0
2017-07-01T00:33:19.086Z,0
2017-07-01T00:34:19.409Z,0
2017-07-01T00:35:18.441Z,0
2017-07-01T00:36:18.717Z,0
2017-07-01T00:37:18.716Z,0
2017-07-01T00:38:18.766Z,0
2017-07-01T00:39:19.045Z,0
2017-07-01T00:40:18.698Z,0
2017-07-01T00:41:19.034Z,0
2017-07-01T00:42:18.716Z,0
2017-07-01T00:43:19.356Z,0
2017-07-01T00:44:18.694Z,0
2017-07-01T00:45:19.046Z,0
2017-07-01T00:46:18.342Z,0
2017-07-01T00:47:18.995Z,0
2017-07-01T00:48:19.333Z,0
2017-07-01T00:49:19.284Z,0
2017-07-01T00:50:18.989Z,0
2017-07-01T00:51:18.979Z,0
2017-07-01T00:52:18.952Z,0
2017-07-01T00:53:18.969Z,0
2017-07-01T00:54:19.267Z,0
2017-07-01T00:55:18.289Z,0
2017-07-01T00:56:18.926Z,0
2017-07-01T00:57:18.610Z,0
2017-07-01T00:58:19.313Z,0
2017-07-01T00:59:18.925Z,0
2017-07-01T01:00:19.227Z,0
2017-07-01T01:01:18.260Z,0
2017-07-01T01:02:18.897Z,0
2017-07-01T01:03:18.945Z,0
2017-07-01T01:04:18.906Z,0
2017-07-01T01:05:18.896Z,0
2017-07-01T01:06:18.887Z,0
2017-07-01T01:07:19.208Z,0
2017-07-01T01:08:18.878Z,0
2017-07-01T01:09:18.907Z,0
2017-07-01T01:10:18.857Z,0
2017-07-01T01:11:19.183Z,0
2017-07-01T01:12:18.852Z,0
2017-07-01T01:13:18.496Z,0
2017-07-01T01:14:18.507Z,0
2017-07-01T01:15:18.814Z,0
2017-07-01T01:16:18.858Z,0
2017-07-01T01:17:18.820Z,0
2017-07-01T01:18:18.479Z,0
2017-07-01T01:19:18.161Z,0
2017-07-01T01:20:19.121Z,0
2017-07-01T01:21:18.800Z,0
2017-07-01T01:22:18.788Z,0
2017-07-01T01:23:19.111Z,0
2017-07-01T01:24:19.080Z,0
2017-07-01T01:25:18.778Z,0
2017-07-01T01:26:18.467Z,0
2017-07-01T01:27:18.734Z,0
2017-07-01T01:28:18.436Z,0
2017-07-01T01:29:18.752Z,0
2017-07-01T01:30:19.047Z,0
2017-07-01T01:31:18.735Z,0
2017-07-01T01:32:18.766Z,0
2017-07-01T01:33:19.081Z,0
2017-07-01T01:34:18.386Z,0
2017-07-01T01:35:18.372Z,0
2017-07-01T01:36:19.026Z,0
2017-07-01T01:37:18.711Z,0
2017-07-01T01:38:18.356Z,0
2017-07-01T01:39:18.690Z,0
2017-07-01T01:40:18.659Z,0
2017-07-01T01:41:19.030Z,0
2017-07-01T01:42:18.652Z,0
2017-07-01T01:43:18.338Z,0
2017-07-01T01:44:18.325Z,0
2017-07-01T01:45:18.324Z,0
2017-07-01T01:46:18.638Z,0
2017-07-01T01:47:18.956Z,0
2017-07-01T01:48:17.998Z,0
2017-07-01T01:49:18.611Z,0
2017-07-01T01:50:18.917Z,0
2017-07-01T01:51:18.591Z,0
2017-07-01T01:52:18.907Z,0
2017-07-01T01:53:18.300Z,0
2017-07-01T01:54:17.928Z,0
2017-07-01T01:55:18.567Z,0
2017-07-01T01:56:18.663Z,0
2017-07-01T01:57:18.892Z,0
2017-07-01T01:58:18.550Z,0
2017-07-01T01:59:18.218Z,0
2017-07-01T02:00:18.548Z,0
2017-07-01T02:01:18.868Z,0
2017-07-01T02:02:17.911Z,0
2017-07-01T02:03:18.856Z,0
2017-07-01T02:04:18.533Z,0
2017-07-01T02:05:18.823Z,0
2017-07-01T02:06:18.853Z,0
2017-07-01T02:07:18.509Z,0
2017-07-01T02:08:18.159Z,0
2017-07-01T02:09:18.803Z,0
2017-07-01T02:10:18.490Z,0
2017-07-01T02:11:18.466Z,0
2017-07-01T02:12:18.459Z,0
2017-07-01T02:13:18.453Z,0
2017-07-01T02:14:18.486Z,0
2017-07-01T02:15:18.798Z,0
2017-07-01T02:16:18.441Z,0
2017-07-01T02:17:18.430Z,0
2017-07-01T02:18:18.127Z,0
2017-07-01T02:19:18.783Z,0
2017-07-01T02:20:18.463Z,0
2017-07-01T02:21:18.759Z,0
2017-07-01T02:22:18.759Z,0
2017-07-01T02:23:18.402Z,0
2017-07-01T02:24:18.717Z,0
2017-07-01T02:25:18.720Z,0
2017-07-01T02:26:18.383Z,0
2017-07-01T02:27:18.750Z,0
2017-07-01T02:28:18.360Z,0
2017-07-01T02:29:17.730Z,0
2017-07-01T02:30:18.372Z,0
2017-07-01T02:31:18.370Z,0
2017-07-01T02:32:18.677Z,0
2017-07-01T02:33:18.008Z,0
2017-07-01T02:34:18.321Z,0
2017-07-01T02:35:18.018Z,0
2017-07-01T02:36:18.064Z,0
2017-07-01T02:37:18.311Z,0
2017-07-01T02:38:18.002Z,0
2017-07-01T02:39:17.996Z,0
2017-07-01T02:40:17.968Z,0
2017-07-01T02:41:18.637Z,0
2017-07-01T02:42:17.974Z,0
2017-07-01T02:43:18.327Z,0
2017-07-01T02:44:17.632Z,0
2017-07-01T02:45:18.276Z,0
2017-07-01T02:46:17.977Z,0
2017-07-01T02:47:18.258Z,0
2017-07-01T02:48:17.600Z,0
2017-07-01T02:49:18.585Z,0
2017-07-01T02:50:18.571Z,0
2017-07-01T02:51:18.221Z,0
2017-07-01T02:52:18.213Z,0
2017-07-01T02:53:18.216Z,0
2017-07-01T02:54:17.915Z,0
2017-07-01T02:55:17.905Z,0
2017-07-01T02:56:18.512Z,0
2017-07-01T02:57:17.865Z,0
2017-07-01T02:58:18.518Z,5
2017-07-01T02:59:18.167Z,5
2017-07-01T03:00:17.837Z,5
2017-07-01T03:01:17.860Z,5
2017-07-01T03:02:18.147Z,5
2017-07-01T03:03:18.150Z,5
2017-07-01T03:04:18.143Z,5
2017-07-01T03:05:17.808Z,5
2017-07-01T03:06:18.148Z,5
2017-07-01T03:07:18.138Z,5
2017-07-01T03:08:18.177Z,10
2017-07-01T03:09:18.430Z,10
2017-07-01T03:10:17.159Z,10
2017-07-01T03:11:17.770Z,10
2017-07-01T03:12:17.789Z,10
2017-07-01T03:13:17.782Z,10
2017-07-01T03:14:18.098Z,10
2017-07-01T03:15:18.070Z,10
2017-07-01T03:16:17.744Z,15
2017-07-01T03:17:18.415Z,15
2017-07-01T03:18:17.745Z,15
2017-07-01T03:19:18.043Z,15
2017-07-01T03:20:18.039Z,15
2017-07-01T03:21:18.088Z,20
2017-07-01T03:22:18.327Z,20
2017-07-01T03:23:17.972Z,20
2017-07-01T03:24:18.121Z,20
2017-07-01T03:25:17.479Z,25
2017-07-01T03:26:17.703Z,25
2017-07-01T03:27:19.088Z,30
2017-07-01T03:28:18.451Z,30
2017-07-01T03:29:17.367Z,30
2017-07-01T03:30:17.069Z,35
2017-07-01T03:31:18.005Z,35
2017-07-01T03:32:18.288Z,35
2017-07-01T03:33:17.644Z,40
2017-07-01T03:34:17.952Z,40
2017-07-01T03:35:17.310Z,40
2017-07-01T03:36:17.929Z,45
2017-07-01T03:37:17.942Z,45
2017-07-01T03:38:17.935Z,45
2017-07-01T03:39:17.946Z,45
2017-07-01T03:40:17.912Z,45
2017-07-01T03:41:17.574Z,50
2017-07-01T03:42:17.569Z,50
2017-07-01T03:43:17.247Z,50
2017-07-01T03:44:17.886Z,50
2017-07-01T03:45:17.571Z,50
2017-07-01T03:46:17.890Z,55
2017-07-01T03:47:17.870Z,55
2017-07-01T03:48:17.872Z,55
2017-07-01T03:49:17.212Z,55
2017-07-01T03:50:17.200Z,55
2017-07-01T03:51:18.165Z,55
2017-07-01T03:52:18.200Z,55
2017-07-01T03:53:17.505Z,55
2017-07-01T03:54:17.520Z,55
2017-07-01T03:55:17.479Z,60
2017-07-01T03:56:17.487Z,60
2017-07-01T03:57:17.471Z,60
2017-07-01T03:58:17.463Z,60
2017-07-01T03:59:17.491Z,65
2017-07-01T04:00:18.117Z,65
2017-07-01T04:01:17.776Z,70
2017-07-01T04:02:17.480Z,70
2017-07-01T04:03:17.434Z,75
2017-07-01T04:04:18.066Z,75
2017-07-01T04:05:18.073Z,80
2017-07-01T04:06:18.055Z,80
2017-07-01T04:07:17.752Z,85
2017-07-01T04:08:17.413Z,85
2017-07-01T04:09:17.432Z,85
2017-07-01T04:10:17.730Z,90
2017-07-01T04:11:17.378Z,90
2017-07-01T04:12:17.713Z,95
2017-07-01T04:13:18.009Z,100
2017-07-01T04:14:17.705Z,100
2017-07-01T04:15:17.699Z,100
2017-07-01T04:16:17.671Z,100
2017-07-01T04:17:17.361Z,105
2017-07-01T04:18:18.016Z,105
2017-07-01T04:19:17.680Z,105
2017-07-01T04:20:17.986Z,100
2017-07-01T04:21:17.639Z,100
2017-07-01T04:22:17.956Z,100
2017-07-01T04:23:16.989Z,100
2017-07-01T04:24:17.294Z,100
2017-07-01T04:25:17.614Z,105
2017-07-01T04:26:17.612Z,120
2017-07-01T04:27:17.938Z,130
2017-07-01T04:28:17.596Z,130
2017-07-01T04:29:17.282Z,125
2017-07-01T04:30:17.592Z,130
2017-07-01T04:31:17.602Z,135
2017-07-01T04:32:17.612Z,130
2017-07-01T04:33:16.978Z,125
2017-07-01T04:34:16.917Z,120
2017-07-01T04:35:17.415Z,120
2017-07-01T04:36:17.881Z,120
2017-07-01T04:37:16.902Z,120
2017-07-01T04:38:17.561Z,125
2017-07-01T04:39:17.547Z,125
2017-07-01T04:40:17.558Z,120
2017-07-01T04:41:17.864Z,120
2017-07-01T04:42:16.872Z,120
2017-07-01T04:43:17.184Z,125
2017-07-01T04:44:17.521Z,130
2017-07-01T04:45:17.514Z,135
2017-07-01T04:46:17.808Z,135
2017-07-01T04:47:17.192Z,140
2017-07-01T04:48:17.156Z,145
2017-07-01T04:49:16.840Z,150
2017-07-01T04:50:17.788Z,155
2017-07-01T04:51:17.797Z,165
2017-07-01T04:52:17.776Z,180
2017-07-01T04:53:17.139Z,190
2017-07-01T04:54:17.123Z,205
2017-07-01T04:55:17.444Z,215
2017-07-01T04:56:17.120Z,220
2017-07-01T04:57:17.434Z,220
2017-07-01T04:58:17.110Z,225
2017-07-01T04:59:17.429Z,225
2017-07-01T05:00:17.421Z,230
2017-07-01T05:01:17.403Z,240
2017-07-01T05:02:17.418Z,245
2017-07-01T05:03:17.396Z,250
2017-07-01T05:04:17.749Z,245
2017-07-01T05:05:17.354Z,250
2017-07-01T05:06:17.393Z,250
2017-07-01T05:07:17.394Z,250
2017-07-01T05:08:17.833Z,250
2017-07-01T05:09:17.453Z,235
2017-07-01T05:10:17.030Z,215
2017-07-01T05:11:17.209Z,205
2017-07-01T05:12:17.386Z,200
2017-07-01T05:13:17.384Z,200
2017-07-01T05:14:17.219Z,205
2017-07-01T05:15:17.669Z,205
2017-07-01T05:16:17.521Z,200
2017-07-01T05:17:17.525Z,195
2017-07-01T05:18:17.555Z,185
2017-07-01T05:19:17.304Z,165
2017-07-01T05:20:17.342Z,130
2017-07-01T05:21:18.083Z,150
2017-07-01T05:22:17.637Z,145
2017-07-01T05:23:16.648Z,150
2017-07-01T05:24:17.598Z,135
2017-07-01T05:25:17.319Z,120
2017-07-01T05:26:17.405Z,155
2017-07-01T05:27:17.682Z,155
2017-07-01T05:28:17.450Z,140
2017-07-01T05:29:17.588Z,170
2017-07-01T05:30:17.572Z,165
2017-07-01T05:31:17.489Z,210
2017-07-01T05:32:17.624Z,190
2017-07-01T05:33:17.566Z,180
2017-07-01T05:34:17.698Z,200
2017-07-01T05:35:17.569Z,180
2017-07-01T05:36:17.257Z,160
2017-07-01T05:37:17.550Z,130
2017-07-01T05:38:17.277Z,105
2017-07-01T05:39:16.855Z,130
2017-07-01T05:40:17.402Z,125
2017-07-01T05:41:16.595Z,125
2017-07-01T05:42:17.222Z,130
2017-07-01T05:43:17.206Z,135
2017-07-01T05:44:17.184Z,130
2017-07-01T05:45:16.214Z,135
2017-07-01T05:46:17.199Z,160
2017-07-01T05:47:16.889Z,195
2017-07-01T05:48:17.172Z,175
2017-07-01T05:49:16.845Z,130
2017-07-01T05:50:17.480Z,120
2017-07-01T05:51:16.852Z,120
2017-07-01T05:52:16.825Z,145
2017-07-01T05:53:16.519Z,175
2017-07-01T05:54:17.171Z,170
2017-07-01T05:55:16.175Z,170
2017-07-01T05:56:17.136Z,150
2017-07-01T05:57:17.146Z,130
2017-07-01T05:58:16.860Z,105
2017-07-01T05:59:17.539Z,90
2017-07-01T06:00:16.787Z,85
2017-07-01T06:01:16.460Z,90
2017-07-01T06:02:17.104Z,95
2017-07-01T06:03:17.100Z,95
2017-07-01T06:04:17.452Z,105
2017-07-01T06:05:17.099Z,110
2017-07-01T06:06:17.443Z,115
2017-07-01T06:07:16.769Z,120
2017-07-01T06:08:16.755Z,115
2017-07-01T06:09:16.447Z,130
2017-07-01T06:10:16.741Z,120
2017-07-01T06:11:16.740Z,115
2017-07-01T06:12:16.745Z,100
2017-07-01T06:13:16.728Z,115
2017-07-01T06:14:17.053Z,195
2017-07-01T06:15:16.063Z,240
2017-07-01T06:16:17.044Z,225
2017-07-01T06:17:17.036Z,180
2017-07-01T06:18:17.021Z,190
2017-07-01T06:19:17.341Z,205
2017-07-01T06:20:17.346Z,175
2017-07-01T06:21:17.017Z,160
2017-07-01T06:22:16.382Z,145
2017-07-01T06:23:17.095Z,175
2017-07-01T06:24:17.316Z,205
2017-07-01T06:25:17.005Z,200
2017-07-01T06:26:16.979Z,220
2017-07-01T06:27:16.984Z,190
2017-07-01T06:28:16.337Z,160
2017-07-01T06:29:16.338Z,180
2017-07-01T06:30:16.641Z,165
2017-07-01T06:31:16.658Z,160
2017-07-01T06:32:16.658Z,210
2017-07-01T06:33:16.977Z,210
2017-07-01T06:34:16.998Z,215
2017-07-01T06:35:16.300Z,220
2017-07-01T06:36:16.606Z,290
2017-07-01T06:37:17.259Z,275
2017-07-01T06:38:16.600Z,255
2017-07-01T06:39:17.241Z,215
2017-07-01T06:40:16.919Z,190
2017-07-01T06:41:16.912Z,185
2017-07-01T06:42:16.583Z,225
2017-07-01T06:43:17.300Z,220
2017-07-01T06:44:16.942Z,210
2017-07-01T06:45:17.226Z,180
2017-07-01T06:46:17.232Z,195
2017-07-01T06:47:17.216Z,195
2017-07-01T06:48:16.881Z,240
2017-07-01T06:49:17.219Z,225
2017-07-01T06:50:16.903Z,235
2017-07-01T06:51:16.576Z,270
2017-07-01T06:52:16.228Z,250
2017-07-01T06:53:16.920Z,225
2017-07-01T06:54:17.173Z,180
2017-07-01T06:55:16.862Z,335
2017-07-01T06:56:17.185Z,335
2017-07-01T06:57:17.176Z,255
2017-07-01T06:58:17.211Z,220
2017-07-01T06:59:16.516Z,260
2017-07-01T07:00:16.504Z,210
2017-07-01T07:01:16.822Z,210
2017-07-01T07:02:17.147Z,215
2017-07-01T07:03:16.816Z,285
2017-07-01T07:04:17.135Z,265
2017-07-01T07:05:16.808Z,345
2017-07-01T07:06:17.144Z,375
2017-07-01T07:07:17.126Z,445
2017-07-01T07:08:16.509Z,420
2017-07-01T07:09:17.113Z,410
2017-07-01T07:10:16.148Z,340
2017-07-01T07:11:16.523Z,410
2017-07-01T07:12:16.143Z,430
2017-07-01T07:13:16.473Z,320
2017-07-01T07:14:16.771Z,375
2017-07-01T07:15:17.089Z,425
2017-07-01T07:16:16.775Z,420
2017-07-01T07:17:16.147Z,345
2017-07-01T07:18:16.435Z,500
2017-07-01T07:19:16.107Z,475
2017-07-01T07:20:16.433Z,500
2017-07-01T07:21:16.743Z,430
2017-07-01T07:22:16.426Z,400
2017-07-01T07:23:16.104Z,550
2017-07-01T07:24:16.773Z,470
2017-07-01T07:25:16.468Z,405
2017-07-01T07:26:17.062Z,380
2017-07-01T07:27:16.810Z,390
2017-07-01T07:28:16.739Z,460
2017-07-01T07:29:16.726Z,520
2017-07-01T07:30:16.724Z,495
2017-07-01T07:31:16.717Z,410
2017-07-01T07:32:17.070Z,405
2017-07-01T07:33:17.057Z,475
2017-07-01T07:34:16.707Z,485
2017-07-01T07:35:16.086Z,310
2017-07-01T07:36:16.072Z,245
2017-07-01T07:37:16.704Z,270
2017-07-01T07:38:16.380Z,270
2017-07-01T07:39:16.715Z,260
2017-07-01T07:40:17.057Z,225
2017-07-01T07:41:16.060Z,290
2017-07-01T07:42:15.738Z,255
2017-07-01T07:43:16.393Z,235
2017-07-01T07:44:16.702Z,265
2017-07-01T07:45:16.687Z,235
2017-07-01T07:46:16.037Z,250
2017-07-01T07:47:16.690Z,235
2017-07-01T07:48:17.009Z,175
2017-07-01T07:49:17.031Z,215
2017-07-01T07:50:16.350Z,190
2017-07-01T07:51:16.339Z,305
2017-07-01T07:52:16.665Z,325
2017-07-01T07:53:16.672Z,380
2017-07-01T07:54:16.658Z,405
2017-07-01T07:55:16.653Z,280
2017-07-01T07:56:16.646Z,235
2017-07-01T07:57:16.319Z,260
2017-07-01T07:58:16.315Z,340
2017-07-01T07:59:16.672Z,280
2017-07-01T08:00:16.643Z,315
2017-07-01T08:01:16.991Z,465
2017-07-01T08:02:16.630Z,510
2017-07-01T08:03:16.665Z,355
2017-07-01T08:04:15.983Z,325
2017-07-01T08:05:16.321Z,300
2017-07-01T08:06:16.327Z,300
2017-07-01T08:07:16.294Z,300
2017-07-01T08:08:16.948Z,435
2017-07-01T08:09:16.295Z,345
2017-07-01T08:10:16.319Z,425
2017-07-01T08:11:16.627Z,295
2017-07-01T08:12:16.342Z,285
2017-07-01T08:13:16.925Z,370
2017-07-01T08:14:16.286Z,385
2017-07-01T08:15:16.603Z,500
2017-07-01T08:16:16.271Z,460
2017-07-01T08:17:16.601Z,440
2017-07-01T08:18:15.972Z,340
2017-07-01T08:19:16.605Z,300
2017-07-01T08:20:16.589Z,295
2017-07-01T08:21:15.940Z,340
2017-07-01T08:22:16.598Z,460
2017-07-01T08:23:16.944Z,435
2017-07-01T08:24:16.602Z,365
2017-07-01T08:25:16.265Z,385
2017-07-01T08:26:16.588Z,370
2017-07-01T08:27:16.566Z,305
2017-07-01T08:28:15.938Z,495
2017-07-01T08:29:15.923Z,435
2017-07-01T08:30:16.581Z,470
2017-07-01T08:31:16.883Z,530
2017-07-01T08:32:16.557Z,550
2017-07-01T08:33:16.880Z,575
2017-07-01T08:34:16.586Z,585
2017-07-01T08:35:15.927Z,460
2017-07-01T08:36:16.229Z,300
2017-07-01T08:37:16.550Z,260
2017-07-01T08:38:16.545Z,345
2017-07-01T08:39:16.574Z,425
2017-07-01T08:40:15.909Z,325
2017-07-01T08:41:16.598Z,300
2017-07-01T08:42:16.886Z,275
2017-07-01T08:43:16.527Z,375
2017-07-01T08:44:15.889Z,370
2017-07-01T08:45:16.223Z,315
2017-07-01T08:46:16.535Z,365
2017-07-01T08:47:16.204Z,300
2017-07-01T08:48:16.625Z,320
2017-07-01T08:49:16.261Z,325
2017-07-01T08:50:16.199Z,320
2017-07-01T08:51:16.534Z,245
2017-07-01T08:52:16.213Z,185
2017-07-01T08:53:16.527Z,165
2017-07-01T08:54:16.584Z,290
2017-07-01T08:55:16.517Z,420
2017-07-01T08:56:16.514Z,370
2017-07-01T08:57:16.532Z,415
2017-07-01T08:58:16.502Z,590
2017-07-01T08:59:15.888Z,630
2017-07-01T09:00:16.845Z,720
2017-07-01T09:01:16.508Z,670
2017-07-01T09:02:16.495Z,705
2017-07-01T09:03:15.549Z,700
2017-07-01T09:04:16.511Z,755
2017-07-01T09:05:16.814Z,580
2017-07-01T09:06:16.858Z,445
2017-07-01T09:07:16.170Z,570
2017-07-01T09:08:16.504Z,765
2017-07-01T09:09:16.505Z,680
2017-07-01T09:10:16.513Z,405
2017-07-01T09:11:16.507Z,370
2017-07-01T09:12:16.182Z,480
2017-07-01T09:13:16.490Z,570
2017-07-01T09:14:16.508Z,630
2017-07-01T09:15:16.497Z,635
2017-07-01T09:16:16.504Z,665
2017-07-01T09:17:16.481Z,740
2017-07-01T09:18:16.151Z,750
2017-07-01T09:19:15.828Z,735
2017-07-01T09:20:16.504Z,695
2017-07-01T09:21:16.181Z,730
2017-07-01T09:22:16.160Z,725
2017-07-01T09:23:16.494Z,855
2017-07-01T09:24:16.167Z,790
2017-07-01T09:25:16.164Z,710
2017-07-01T09:26:16.155Z,715
2017-07-01T09:27:16.489Z,675
2017-07-01T09:28:16.830Z,625
2017-07-01T09:29:16.822Z,690
2017-07-01T09:30:16.475Z,685
2017-07-01T09:31:16.492Z,665
2017-07-01T09:32:16.515Z,655
2017-07-01T09:33:16.184Z,670
2017-07-01T09:34:16.184Z,685
2017-07-01T09:35:16.526Z,660
2017-07-01T09:36:16.478Z,615
2017-07-01T09:37:16.484Z,575
2017-07-01T09:38:16.144Z,540
2017-07-01T09:39:16.480Z,615
2017-07-01T09:40:16.149Z,540
2017-07-01T09:41:15.530Z,620
2017-07-01T09:42:15.507Z,625
2017-07-01T09:43:16.481Z,555
2017-07-01T09:44:16.472Z,580
2017-07-01T09:45:16.502Z,635
2017-07-01T09:46:16.160Z,735
2017-07-01T09:47:15.833Z,535
2017-07-01T09:48:16.158Z,565
2017-07-01T09:49:16.163Z,660
2017-07-01T09:50:16.795Z,715
2017-07-01T09:51:16.497Z,720
2017-07-01T09:52:16.158Z,665
2017-07-01T09:53:16.500Z,695
2017-07-01T09:54:16.182Z,690
2017-07-01T09:55:16.194Z,635
2017-07-01T09:56:16.486Z,605
2017-07-01T09:57:16.165Z,615
2017-07-01T09:58:16.493Z,560
2017-07-01T09:59:15.852Z,520
2017-07-01T10:00:16.850Z,455
2017-07-01T10:01:16.499Z,440
2017-07-01T10:02:16.494Z,465
2017-07-01T10:03:16.807Z,495
2017-07-01T10:04:16.190Z,525
2017-07-01T10:05:16.178Z,560
2017-07-01T10:06:15.858Z,565
2017-07-01T10:07:16.167Z,500
2017-07-01T10:08:16.496Z,475
2017-07-01T10:09:16.811Z,455
2017-07-01T10:10:16.169Z,435
2017-07-01T10:11:16.830Z,475
2017-07-01T10:12:16.194Z,545
2017-07-01T10:13:16.517Z,575
2017-07-01T10:14:16.842Z,545
2017-07-01T10:15:16.509Z,505
2017-07-01T10:16:16.815Z,450
2017-07-01T10:17:16.507Z,425
2017-07-01T10:18:16.515Z,410
2017-07-01T10:19:16.183Z,445
2017-07-01T10:20:15.855Z,520
2017-07-01T10:21:16.181Z,545
2017-07-01T10:22:16.819Z,500
2017-07-01T10:23:15.853Z,565
2017-07-01T10:24:16.522Z,630
2017-07-01T10:25:16.484Z,605
2017-07-01T10:26:16.841Z,590
2017-07-01T10:27:16.487Z,605
2017-07-01T10:28:16.818Z,625
2017-07-01T10:29:16.529Z,625
2017-07-01T10:30:18.539Z,600
2017-07-01T10:31:16.483Z,555
2017-07-01T10:32:16.530Z,520
2017-07-01T10:33:16.196Z,585
2017-07-01T10:34:16.482Z,605
2017-07-01T10:35:16.226Z,570
2017-07-01T10:36:16.487Z,590
2017-07-01T10:37:16.196Z,650
2017-07-01T10:38:16.824Z,650
2017-07-01T10:39:16.539Z,580
2017-07-01T10:40:16.195Z,490
2017-07-01T10:41:16.171Z,505
2017-07-01T10:42:15.898Z,580
2017-07-01T10:43:15.865Z,635
2017-07-01T10:44:16.883Z,635
2017-07-01T10:45:15.841Z,600
2017-07-01T10:46:16.498Z,590
2017-07-01T10:47:16.214Z,600
2017-07-01T10:48:16.482Z,590
2017-07-01T10:49:16.506Z,615
2017-07-01T10:50:16.516Z,605
2017-07-01T10:51:15.856Z,595
2017-07-01T10:52:16.538Z,640
2017-07-01T10:53:16.164Z,735
2017-07-01T10:54:16.162Z,720
2017-07-01T10:55:16.505Z,690
2017-07-01T10:56:16.164Z,700
2017-07-01T10:57:15.865Z,675
2017-07-01T10:58:16.812Z,565
2017-07-01T10:59:16.167Z,440
2017-07-01T11:00:16.494Z,300
2017-07-01T11:01:15.846Z,250
2017-07-01T11:02:16.856Z,185
2017-07-01T11:03:16.509Z,215
2017-07-01T11:04:16.195Z,425
2017-07-01T11:05:16.184Z,605
2017-07-01T11:06:16.497Z,645
2017-07-01T11:07:16.495Z,665
2017-07-01T11:08:16.849Z,670
2017-07-01T11:09:16.490Z,610
2017-07-01T11:10:16.182Z,520
2017-07-01T11:11:16.869Z,455
2017-07-01T11:12:16.847Z,430
2017-07-01T11:13:16.824Z,405
2017-07-01T11:14:16.853Z,330
2017-07-01T11:15:16.535Z,310
2017-07-01T11:16:16.530Z,335
2017-07-01T11:17:16.181Z,305
2017-07-01T11:18:15.869Z,225
2017-07-01T11:19:16.174Z,280
2017-07-01T11:20:16.505Z,325
2017-07-01T11:21:16.180Z,400
2017-07-01T11:22:16.500Z,470
2017-07-01T11:23:16.173Z,510
2017-07-01T11:24:16.171Z,515
2017-07-01T11:25:15.573Z,470
2017-07-01T11:26:16.817Z,450
2017-07-01T11:27:16.498Z,410
2017-07-01T11:28:16.193Z,415
2017-07-01T11:29:16.502Z,405
2017-07-01T11:30:16.190Z,405
2017-07-01T11:31:15.861Z,425
2017-07-01T11:32:16.187Z,475
2017-07-01T11:33:16.540Z,510
2017-07-01T11:34:15.564Z,505
2017-07-01T11:35:16.493Z,500
2017-07-01T11:36:16.174Z,475
2017-07-01T11:37:16.182Z,495
2017-07-01T11:38:16.561Z,520
2017-07-01T11:39:16.802Z,620
2017-07-01T11:40:15.845Z,605
2017-07-01T11:41:16.524Z,620
2017-07-01T11:42:16.174Z,540
2017-07-01T11:43:15.556Z,575
2017-07-01T11:44:16.192Z,515
2017-07-01T11:45:16.865Z,460
2017-07-01T11:46:16.508Z,360
2017-07-01T11:47:16.829Z,260
2017-07-01T11:48:16.169Z,180
2017-07-01T11:49:15.844Z,200
2017-07-01T11:50:16.162Z,230
2017-07-01T11:51:16.500Z,195
2017-07-01T11:52:16.514Z,205
2017-07-01T11:53:16.851Z,200
2017-07-01T11:54:16.825Z,200
2017-07-01T11:55:16.512Z,185
2017-07-01T11:56:16.807Z,215
2017-07-01T11:57:16.171Z,285
2017-07-01T11:58:15.521Z,320
2017-07-01T11:59:16.534Z,430
2017-07-01T12:00:16.826Z,520
2017-07-01T12:01:16.530Z,525
2017-07-01T12:02:16.189Z,530
2017-07-01T12:03:17.057Z,435
2017-07-01T12:04:15.849Z,350
2017-07-01T12:05:16.801Z,255
2017-07-01T12:06:16.155Z,215
2017-07-01T12:07:16.172Z,240
2017-07-01T12:08:16.579Z,145
2017-07-01T12:09:16.519Z,90
2017-07-01T12:10:16.873Z,80
2017-07-01T12:11:16.164Z,70
2017-07-01T12:12:16.150Z,85
2017-07-01T12:13:16.469Z,130
2017-07-01T12:14:16.797Z,220
2017-07-01T12:15:16.815Z,280
2017-07-01T12:16:16.468Z,315
2017-07-01T12:17:16.483Z,345
2017-07-01T12:18:16.481Z,355
2017-07-01T12:19:16.455Z,370
2017-07-01T12:20:16.160Z,400
2017-07-01T12:21:16.455Z,435
2017-07-01T12:22:16.477Z,460
2017-07-01T12:23:16.123Z,475
2017-07-01T12:24:16.188Z,510
2017-07-01T12:25:16.509Z,555
2017-07-01T12:26:16.474Z,575
2017-07-01T12:27:16.444Z,570
2017-07-01T12:28:16.771Z,550
2017-07-01T12:29:16.128Z,525
2017-07-01T12:30:16.134Z,485
2017-07-01T12:31:16.150Z,470
2017-07-01T12:32:16.117Z,490
2017-07-01T12:33:16.434Z,505
2017-07-01T12:34:16.452Z,510
2017-07-01T12:35:16.424Z,520
2017-07-01T12:36:16.430Z,570
2017-07-01T12:37:16.090Z,560
2017-07-01T12:38:16.103Z,485
2017-07-01T12:39:16.107Z,370
2017-07-01T12:40:16.730Z,320
2017-07-01T12:41:16.418Z,270
2017-07-01T12:42:16.091Z,255
2017-07-01T12:43:16.421Z,250
2017-07-01T12:44:16.079Z,255
2017-07-01T12:45:16.069Z,225
2017-07-01T12:46:16.425Z,275
2017-07-01T12:47:15.425Z,285
2017-07-01T12:48:16.088Z,315
2017-07-01T12:49:16.104Z,325
2017-07-01T12:50:16.067Z,300
2017-07-01T12:51:16.390Z,320
2017-07-01T12:52:16.721Z,325
2017-07-01T12:53:16.726Z,305
2017-07-01T12:54:16.130Z,280
2017-07-01T12:55:16.380Z,255
2017-07-01T12:56:16.378Z,240
2017-07-01T12:57:16.406Z,285
2017-07-01T12:58:16.380Z,225
2017-07-01T12:59:16.037Z,235
2017-07-01T13:00:16.209Z,270
2017-07-01T13:01:16.035Z,295
2017-07-01T13:02:16.349Z,330
2017-07-01T13:03:16.382Z,345
2017-07-01T13:04:16.030Z,350
2017-07-01T13:05:16.689Z,340
2017-07-01T13:06:16.029Z,345
2017-07-01T13:07:16.357Z,345
2017-07-01T13:08:16.011Z,365
2017-07-01T13:09:16.675Z,385
2017-07-01T13:10:16.035Z,405
2017-07-01T13:11:16.013Z,400
2017-07-01T13:12:16.385Z,390
2017-07-01T13:13:16.313Z,440
2017-07-01T13:14:15.717Z,545
2017-07-01T13:15:16.667Z,600
2017-07-01T13:16:16.643Z,605
2017-07-01T13:17:16.305Z,575
2017-07-01T13:18:16.307Z,625
2017-07-01T13:19:16.626Z,685
2017-07-01T13:20:16.297Z,630
2017-07-01T13:21:16.312Z,575
2017-07-01T13:22:16.300Z,560
2017-07-01T13:23:16.619Z,520
2017-07-01T13:24:16.296Z,460
2017-07-01T13:25:16.279Z,460
2017-07-01T13:26:15.989Z,505
2017-07-01T13:27:16.673Z,530
2017-07-01T13:28:16.283Z,540
2017-07-01T13:29:16.301Z,535
2017-07-01T13:30:17.038Z,525
2017-07-01T13:31:16.611Z,520
2017-07-01T13:32:16.260Z,530
2017-07-01T13:33:15.958Z,515
2017-07-01T13:34:15.936Z,490
2017-07-01T13:35:15.953Z,470
2017-07-01T13:36:16.815Z,465
2017-07-01T13:37:15.934Z,455
2017-07-01T13:38:15.936Z,480
2017-07-01T13:39:15.663Z,520
2017-07-01T13:40:15.954Z,520
2017-07-01T13:41:16.250Z,505
2017-07-01T13:42:16.575Z,525
2017-07-01T13:43:15.610Z,515
2017-07-01T13:44:16.250Z,515
2017-07-01T13:45:16.260Z,520
2017-07-01T13:46:15.949Z,470
2017-07-01T13:47:15.912Z,450
2017-07-01T13:48:15.917Z,430
2017-07-01T13:49:16.568Z,440
2017-07-01T13:50:16.590Z,445
2017-07-01T13:51:15.583Z,425
2017-07-01T13:52:16.599Z,345
2017-07-01T13:53:16.232Z,320
2017-07-01T13:54:16.550Z,315
2017-07-01T13:55:16.223Z,275
2017-07-01T13:56:16.232Z,295
2017-07-01T13:57:16.580Z,350
2017-07-01T13:58:16.238Z,275
2017-07-01T13:59:15.570Z,210
2017-07-01T14:00:15.593Z,275
2017-07-01T14:01:15.581Z,310